Përmbledhja e garës (Pistë: Hungaroring | Sezon: 19 | Gara: 12 | Grupi: Elite)

Zgjidh Nje Grup Tjeter:  Sezon:  Gara:

Poz Përparimi Goma Shtet Menagjeri Koha e gares Xhiro Pitstopet Xhiro më e mirë Shpejtësi mesatare Koha më e mirë e pitit
01. +2 +2 Badyear   Toni Söyrinki 1h53:55.201 77 1 1:27.094 160.90km/h 16.062s
02. +6 +6 Badyear   Michał Smiatacz + 3.070 77 1 1:26.971 160.83km/h 16.610s
03. +2 +2 Michelini   Vladimir Islentiev2 + 11.134 77 1 1:27.847 160.64km/h 9.693s
04. -2 -2 Michelini   Toygun Senler1 + 12.353 77 1 1:27.726 160.61km/h 9.093s
05. +15 +15 Dunnolop   Leandro Sereno2 + 1:15.630 77 1 1:28.141 159.14km/h 10.420s
06. -5 -5 Michelini   João Monteiro + 1:23.285 77 2 1:27.923 158.97km/h 14.479s
07. +2 +2 Michelini   Marek Marchewka + 1:26.342 77 1 1:28.335 158.90km/h 15.350s
08. -2 -2 Michelini   Zdenek Hladik + 1:30.318 76 1 1:28.622 158.80km/h 15.474s
09. -2 -2 Michelini   Jan Zaluski + 1:30.368 76 1 1:28.611 158.80km/h 15.458s
10. +6 +6 Michelini   Denis Grahov + 1:33.068 76 1 1:28.597 158.74km/h 15.616s
11. -1 -1 Michelini   Jari Aareskoski3 + 1:42.923 76 1 1:28.614 158.52km/h 10.494s
12. -1 -1 Michelini   Tomasz Kaminski + 1:47.336 76 1 1:28.629 158.41km/h 12.393s
13. Nuk ka ndryshim ±0 Michelini   Nuno Vicente + 2:00.350 76 1 1:28.728 158.12km/h 14.028s
14. +4 +4 Dunnolop   Andrius Talandzevicius + 2:00.589 76 1 1:28.728 158.11km/h 15.219s
15. -3 -3 Badyear   Michael Monaco + 2:00.622 76 1 1:28.014 158.11km/h 21.780s
16. -1 -1 Michelini   Joan Centellas + 2:01.694 76 1 1:28.843 158.09km/h 14.032s
17. Nuk ka ndryshim ±0 Michelini   Rimantas Sagatas + 2:01.915 76 1 1:29.010 158.08km/h 16.324s
18. -14 -14 Michelini   Edvinas Pranculevicius + 2:02.119 76 2 1:28.121 158.08km/h 13.230s
19. Nuk ka ndryshim ±0 Michelini   Martynas Molneris + 2:14.312 76 1 1:29.176 157.80km/h 12.659s
20. +2 +2 Badyear   Lee Ifans + 2:38.509 76 1 1:28.620 157.26km/h 26.291s
21. -7 -7 Dunnolop   Daniele Ambroggi + 4:13.841 75 0 1:30.797 155.14km/h -
22. +2 +2 Michelini   Aleksej Sutkin + 4:48.172 74 0 1:31.127 154.39km/h -
23. +3 +3 Michelini   Laila Britāle + 5:39.751 74 0 1:31.756 153.28km/h -
24. -1 -1 Michelini   Renato Svaiter + 5:41.133 74 2 1:30.755 153.25km/h 14.384s
25. +10 +10 Michelini   Lucas Secundo Abreu + 6:01.320 73 0 1:30.919 152.82km/h -
26. +1 +1 Michelini   Wagner Souza + 6:01.627 73 0 1:31.815 152.82km/h -
27. +2 +2 Dunnolop   Kostas Farsalinos + 6:13.613 73 1 1:31.674 152.56km/h 27.687s
28. Nuk ka ndryshim ±0 Dunnolop   Gabriel Toma + 6:32.373 73 1 1:31.914 152.17km/h 31.389s
29. +2 +2 Pipirelli   Craig Templeman + 7:27.490 72 1 1:33.123 151.02km/h 17.250s
30. +3 +3 Pipirelli   Philipp Hartmann + 7:28.589 72 1 1:33.221 150.99km/h 18.095s
31. -1 -1 Pipirelli   Mikko Heikkinen + 7:42.576 72 2 1:32.816 150.70km/h 15.891s
32. +4 +4 Pipirelli   Martynas Atkočius + 9:05.296 71 0 1:34.095 149.01km/h -
33. +1 +1 Michelini   Martin Rosina + 12:30.941 69 1 1:35.048 144.97km/h 16.662s
E pa klasifikuar
34. -9 -9 Dunnolop   Michalis Marolachakis Problemet teknike 64 1 1:32.748    17.413s
35. -14 -14 Michelini   Vitor Novo Problemet teknike 32 1 1:32.395    18.384s
36. +1 +1 Michelini   Filipe Miguel Problemet teknike 27 1 1:34.799    19.266s
37. -5 -5 Dunnolop   Oli Jais Aksident në nisje 0 0 -    -